Time;durP1;ratioP1;P1;durP2;ratioP2;P2;SDS_P1;SDS_P2;PMS_P1;PMS_P2;Temp;Humidity;BMP_temperature;BMP_pressure;BME280_temperature;BME280_humidity;BME280_pressure;Samples;Min_cycle;Max_cycle;Signal;HPM_P1;HPM_P2
2022/03/12 00:01:06;;;;;;;5.80;1.27;;;25.60;99.90;;;;;;4919308;29;20236;-67
2022/03/12 00:03:34;;;;;;;6.23;1.33;;;25.90;99.90;;;;;;4919325;29;20213;-68
2022/03/12 00:06:03;;;;;;;3.27;1.00;;;25.40;99.90;;;;;;4919488;29;20189;-69
2022/03/12 00:11:23;;;;;;;6.30;1.10;;;25.30;99.90;;;;;;4919279;29;20236;-69
2022/03/12 00:13:52;;;;;;;7.03;1.07;;;26.00;99.90;;;;;;4918346;29;20173;-69
2022/03/12 00:16:24;;;;;;;5.03;1.50;;;26.00;99.90;;;;;;4919497;29;20185;-69
2022/03/12 00:18:58;;;;;;;4.93;1.17;;;26.10;99.90;;;;;;4919270;29;20239;-69
2022/03/12 00:21:28;;;;;;;5.50;1.03;;;27.00;99.90;;;;;;4917876;29;20213;-69
2022/03/12 00:23:58;;;;;;;11.40;1.93;;;27.80;99.90;;;;;;4918881;29;20284;-70
2022/03/12 00:26:29;;;;;;;7.47;1.90;;;26.50;99.90;;;;;;4919201;29;20222;-69
2022/03/12 00:28:58;;;;;;;6.17;1.80;;;25.10;99.90;;;;;;4919088;29;20622;-69
2022/03/12 00:31:27;;;;;;;5.03;1.40;;;24.40;99.90;;;;;;4919045;29;20252;-69
2022/03/12 00:33:55;;;;;;;4.33;1.40;;;24.20;99.90;;;;;;4918780;29;20225;-68
2022/03/12 00:36:22;;;;;;;5.63;1.30;;;24.20;99.90;;;;;;4919011;29;20189;-70
2022/03/12 00:38:50;;;;;;;5.00;1.30;;;24.10;99.90;;;;;;4919011;29;20185;-69
2022/03/12 00:41:18;;;;;;;4.13;1.20;;;24.10;99.90;;;;;;4917741;29;20544;-69
2022/03/12 00:43:46;;;;;;;4.40;1.00;;;24.20;99.90;;;;;;4918047;29;20213;-70
2022/03/12 00:46:14;;;;;;;2.83;1.00;;;25.40;99.90;;;;;;4917548;29;20190;-69
2022/03/12 00:48:42;;;;;;;5.57;1.57;;;26.70;99.90;;;;;;4915741;29;20189;-69
2022/03/12 00:51:10;;;;;;;6.23;1.30;;;26.40;99.90;;;;;;4897938;29;20178;-69
2022/03/12 00:53:40;;;;;;;6.10;1.10;;;26.40;99.90;;;;;;4900393;29;20277;-69
2022/03/12 00:56:09;;;;;;;6.17;1.40;;;26.30;99.90;;;;;;4917275;29;20264;-69
2022/03/12 00:58:37;;;;;;;10.53;2.20;;;25.70;99.90;;;;;;4917410;29;20185;-71
2022/03/12 01:01:06;;;;;;;20.37;6.60;;;25.60;99.90;;;;;;4917074;29;20225;-69
2022/03/12 01:03:34;;;;;;;7.43;1.70;;;25.60;99.90;;;;;;4916739;29;20186;-71
2022/03/12 01:06:04;;;;;;;4.20;1.50;;;25.10;99.90;;;;;;4917115;29;20648;-70
2022/03/12 01:08:34;;;;;;;5.07;1.97;;;24.90;99.90;;;;;;4917348;29;20586;-70
2022/03/12 01:11:07;;;;;;;5.93;1.50;;;24.60;99.90;;;;;;4916960;29;20189;-70
2022/03/12 01:13:35;;;;;;;10.13;1.70;;;24.40;99.90;;;;;;4916714;29;20173;-69
2022/03/12 01:16:03;;;;;;;6.40;1.70;;;24.10;99.90;;;;;;4916943;29;20248;-70
2022/03/12 01:18:31;;;;;;;4.47;1.30;;;24.20;99.90;;;;;;4916912;29;20192;-70
2022/03/12 01:21:17;;;;;;;3.80;1.30;;;24.10;99.90;;;;;;4916771;29;20530;-68
2022/03/12 01:23:46;;;;;;;7.00;1.10;;;24.20;99.90;;;;;;4916267;29;20216;-70
2022/03/12 01:26:14;;;;;;;8.20;1.47;;;24.20;99.90;;;;;;4916624;29;20674;-69
2022/03/12 01:28:42;;;;;;;7.33;1.40;;;24.20;99.90;;;;;;4916870;29;20178;-69
2022/03/12 01:31:10;;;;;;;7.90;1.33;;;24.20;99.90;;;;;;4916699;29;20597;-69
2022/03/12 01:33:38;;;;;;;1.90;0.80;;;24.20;99.90;;;;;;4916135;29;20216;-70
2022/03/12 01:36:07;;;;;;;6.23;1.70;;;24.10;99.90;;;;;;4916597;29;20260;-69
2022/03/12 01:38:47;;;;;;;4.40;1.50;;;24.10;99.90;;;;;;4916743;29;20586;-69
2022/03/12 01:41:21;;;;;;;5.93;1.20;;;24.10;99.90;;;;;;4916772;29;20184;-70
2022/03/12 01:43:49;;;;;;;6.37;1.30;;;24.10;99.90;;;;;;4915962;29;20178;-71
2022/03/12 01:46:18;;;;;;;4.27;1.30;;;24.10;99.90;;;;;;4916541;29;20277;-71
2022/03/12 01:48:52;;;;;;;7.83;1.57;;;24.00;99.90;;;;;;4916438;29;20639;-70
2022/03/12 01:51:20;;;;;;;6.93;1.53;;;24.10;99.90;;;;;;4897706;29;20196;-70
2022/03/12 01:53:48;;;;;;;8.43;1.50;;;24.30;99.90;;;;;;4897517;29;20640;-70
2022/03/12 01:56:16;;;;;;;3.47;1.47;;;24.60;99.90;;;;;;4897500;29;20185;-70
2022/03/12 01:58:48;;;;;;;10.17;2.30;;;24.60;99.90;;;;;;4897581;29;20178;-70
2022/03/12 02:01:15;;;;;;;8.53;1.90;;;24.70;99.90;;;;;;4912933;29;20718;-71
2022/03/12 02:03:45;;;;;;;3.33;0.90;;;24.80;99.90;;;;;;4916084;29;20209;-70
2022/03/12 02:06:21;;;;;;;3.87;1.13;;;25.30;99.90;;;;;;4916270;29;20185;-71
2022/03/12 02:08:53;;;;;;;2.53;0.60;;;25.20;99.90;;;;;;4916042;29;20181;-71
2022/03/12 02:11:31;;;;;;;2.83;0.90;;;25.30;99.90;;;;;;4910848;29;20189;-70
2022/03/12 02:14:21;;;;;;;4.00;1.20;;;25.20;99.90;;;;;;4915920;29;20200;-70
2022/03/12 02:16:54;;;;;;;3.87;0.87;;;25.40;99.90;;;;;;4897186;29;20202;-71
2022/03/12 02:19:27;;;;;;;3.90;1.30;;;26.90;99.90;;;;;;4906195;29;20193;-70
2022/03/12 02:22:01;;;;;;;4.27;1.23;;;26.60;99.90;;;;;;4914921;29;20200;-70
2022/03/12 02:24:32;;;;;;;1.67;0.80;;;26.30;99.90;;;;;;4915776;29;20303;-70
2022/03/12 02:27:03;;;;;;;4.57;0.73;;;25.70;99.90;;;;;;4915832;29;20272;-70
2022/03/12 02:29:32;;;;;;;3.37;0.90;;;25.20;99.90;;;;;;4915254;29;20189;-70
2022/03/12 02:32:10;;;;;;;4.97;0.80;;;24.90;99.90;;;;;;4915881;29;20271;-70
2022/03/12 02:34:42;;;;;;;6.80;0.97;;;24.90;99.90;;;;;;4914682;29;20272;-70
2022/03/12 02:37:12;;;;;;;5.57;0.83;;;24.70;99.90;;;;;;4903807;29;20950;-69
2022/03/12 02:39:40;;;;;;;2.63;0.63;;;24.60;99.90;;;;;;4915325;29;20200;-70
2022/03/12 02:42:09;;;;;;;5.13;1.30;;;24.60;99.90;;;;;;4915306;29;20185;-70
2022/03/12 02:44:36;;;;;;;1.80;0.90;;;25.10;99.90;;;;;;4915456;29;20702;-70
2022/03/12 02:47:12;;;;;;;3.63;0.70;;;25.60;99.90;;;;;;4915059;29;20269;-69
2022/03/12 02:49:45;;;;;;;8.33;0.87;;;25.00;99.90;;;;;;4900515;29;20177;-70
2022/03/12 02:52:14;;;;;;;7.20;1.23;;;25.10;99.90;;;;;;4915600;29;20603;-70
2022/03/12 02:54:44;;;;;;;3.33;0.80;;;25.00;99.90;;;;;;4914185;29;20511;-69
2022/03/12 02:57:13;;;;;;;3.37;0.73;;;24.80;99.90;;;;;;4914856;29;20185;-69
2022/03/12 02:59:45;;;;;;;9.37;1.57;;;25.00;99.90;;;;;;4914676;29;20189;-70
2022/03/12 03:02:14;;;;;;;5.03;0.93;;;25.10;99.90;;;;;;4914197;29;20245;-69
2022/03/12 03:04:41;;;;;;;9.33;1.10;;;25.00;99.90;;;;;;4915112;29;20905;-70
2022/03/12 03:07:11;;;;;;;2.60;0.87;;;25.00;99.90;;;;;;4915209;29;20244;-69
2022/03/12 03:09:39;;;;;;;4.73;0.90;;;24.90;99.90;;;;;;4913364;29;20690;-70
2022/03/12 03:12:10;;;;;;;4.93;0.60;;;24.70;99.90;;;;;;4915377;29;20208;-70
2022/03/12 03:14:42;;;;;;;4.23;0.93;;;24.40;99.90;;;;;;4915408;29;20185;-71
2022/03/12 03:17:12;;;;;;;5.27;1.07;;;24.50;99.90;;;;;;4915336;29;20185;-70
2022/03/12 03:19:40;;;;;;;10.07;0.77;;;24.50;99.90;;;;;;4915380;29;20233;-70
2022/03/12 03:22:09;;;;;;;6.13;1.03;;;24.60;99.90;;;;;;4914895;29;20277;-70
2022/03/12 03:24:36;;;;;;;3.60;0.80;;;24.60;99.90;;;;;;4914217;29;20208;-69
2022/03/12 03:27:04;;;;;;;6.53;1.10;;;24.60;99.90;;;;;;4915396;29;20260;-69
2022/03/12 03:29:33;;;;;;;3.77;0.70;;;25.00;99.90;;;;;;4915196;29;20200;-69
2022/03/12 03:32:01;;;;;;;5.53;1.07;;;25.70;99.90;;;;;;4915389;29;20268;-70
2022/03/12 03:34:32;;;;;;;5.13;0.83;;;26.70;99.90;;;;;;4915386;29;20189;-69
2022/03/12 03:37:00;;;;;;;5.30;1.20;;;27.10;99.90;;;;;;4915261;29;20186;-70
2022/03/12 03:39:28;;;;;;;2.47;0.77;;;27.20;99.90;;;;;;4915263;29;20249;-70
2022/03/12 03:41:56;;;;;;;5.83;1.07;;;27.20;99.90;;;;;;4915878;29;20189;-71
2022/03/12 03:44:28;;;;;;;7.97;1.43;;;27.10;99.90;;;;;;4917170;29;20215;-71
2022/03/12 03:46:56;;;;;;;2.87;0.80;;;27.50;99.90;;;;;;4923842;29;20185;-70
2022/03/12 03:49:25;;;;;;;5.93;1.50;;;26.60;99.90;;;;;;4923548;29;20193;-71
2022/03/12 03:51:56;;;;;;;3.73;0.80;;;26.40;99.90;;;;;;4924354;29;20181;-70
2022/03/12 03:54:23;;;;;;;5.57;0.80;;;26.30;99.90;;;;;;4927429;29;20185;-71
2022/03/12 03:56:51;;;;;;;6.63;0.80;;;26.10;99.90;;;;;;4924621;29;20253;-71
2022/03/12 03:59:19;;;;;;;3.33;0.97;;;25.60;99.90;;;;;;4924249;29;20186;-71
2022/03/12 04:01:47;;;;;;;7.53;1.13;;;25.50;99.90;;;;;;4919681;29;20231;-71
2022/03/12 04:04:15;;;;;;;4.97;1.23;;;25.50;99.90;;;;;;4918597;29;20259;-72
2022/03/12 04:06:43;;;;;;;4.40;0.80;;;25.90;99.90;;;;;;4918058;29;20263;-71
2022/03/12 04:09:11;;;;;;;3.43;0.70;;;26.50;99.90;;;;;;4918316;29;20269;-71
2022/03/12 04:11:39;;;;;;;4.73;0.90;;;26.90;99.90;;;;;;4918197;29;20205;-71
2022/03/12 04:14:07;;;;;;;6.93;0.73;;;27.00;99.90;;;;;;4917543;29;20189;-71
2022/03/12 04:16:35;;;;;;;2.67;0.67;;;27.20;99.90;;;;;;4918053;29;20233;-71
2022/03/12 04:19:05;;;;;;;4.10;0.93;;;27.90;99.90;;;;;;4899536;29;20181;-71
2022/03/12 04:21:33;;;;;;;4.83;1.00;;;27.90;99.90;;;;;;4899298;29;20185;-72
2022/03/12 04:24:01;;;;;;;3.83;0.60;;;27.80;99.90;;;;;;4899080;29;20268;-72
2022/03/12 04:26:33;;;;;;;5.03;0.70;;;28.00;99.90;;;;;;4899231;29;20286;-72
2022/03/12 04:29:03;;;;;;;1.37;0.73;;;27.60;99.90;;;;;;4917708;29;20224;-70
2022/03/12 04:31:31;;;;;;;3.23;1.00;;;27.20;99.90;;;;;;4917885;29;20647;-72
2022/03/12 04:33:59;;;;;;;4.60;0.77;;;26.60;99.90;;;;;;4917448;29;20209;-72
2022/03/12 04:36:28;;;;;;;3.33;0.90;;;26.30;99.90;;;;;;4917721;29;20253;-70
2022/03/12 04:38:55;;;;;;;2.03;0.53;;;26.50;99.90;;;;;;4917600;29;20209;-70
2022/03/12 04:41:24;;;;;;;4.27;0.60;;;26.10;99.90;;;;;;4917693;29;20188;-70
2022/03/12 04:43:52;;;;;;;5.10;0.73;;;25.80;99.90;;;;;;4917660;29;20189;-71
2022/03/12 04:46:20;;;;;;;7.40;1.73;;;25.80;99.90;;;;;;4916115;29;20196;-70
2022/03/12 04:48:48;;;;;;;4.27;0.77;;;25.90;99.90;;;;;;4917463;29;20181;-70
2022/03/12 04:51:16;;;;;;;6.23;1.03;;;25.70;99.90;;;;;;4917579;29;20184;-69
2022/03/12 04:53:44;;;;;;;4.90;0.97;;;25.60;99.90;;;;;;4917369;29;20244;-69
2022/03/12 04:56:11;;;;;;;5.00;0.87;;;25.30;99.90;;;;;;4917336;29;20181;-71
2022/03/12 04:58:39;;;;;;;8.37;1.23;;;25.20;99.90;;;;;;4916366;29;20724;-72
2022/03/12 05:01:07;;;;;;;4.20;0.90;;;25.20;99.90;;;;;;4917023;29;20228;-71
2022/03/12 05:03:35;;;;;;;4.00;1.10;;;25.10;99.90;;;;;;4917276;29;20197;-71
2022/03/12 05:06:03;;;;;;;5.70;1.00;;;25.10;99.90;;;;;;4917103;29;20558;-70
2022/03/12 05:08:35;;;;;;;5.23;1.20;;;25.30;99.90;;;;;;4916879;29;20232;-72
2022/03/12 05:11:03;;;;;;;8.57;1.13;;;25.90;99.90;;;;;;4917343;29;20189;-70
2022/03/12 05:13:31;;;;;;;6.03;0.90;;;26.00;99.90;;;;;;4917049;29;20174;-70
2022/03/12 05:16:05;;;;;;;2.57;0.93;;;25.70;99.90;;;;;;4916999;29;20197;-69
2022/03/12 05:18:33;;;;;;;5.00;0.90;;;25.40;99.90;;;;;;4916632;29;20185;-70
2022/03/12 05:21:01;;;;;;;7.77;1.10;;;25.20;99.90;;;;;;4916952;29;20248;-70
2022/03/12 05:23:29;;;;;;;4.67;0.70;;;25.20;99.90;;;;;;4916386;29;20227;-70
2022/03/12 05:25:56;;;;;;;8.20;1.37;;;25.60;99.90;;;;;;4916710;29;20224;-71
2022/03/12 05:28:30;;;;;;;4.50;1.10;;;25.40;99.90;;;;;;4915910;29;20280;-70
2022/03/12 05:31:00;;;;;;;4.97;1.10;;;25.20;99.90;;;;;;4897918;29;20695;-70
2022/03/12 05:33:28;;;;;;;5.57;0.90;;;25.00;99.90;;;;;;4911382;29;20185;-69
2022/03/12 05:35:57;;;;;;;3.83;0.90;;;24.90;99.90;;;;;;4915937;29;20213;-69
2022/03/12 05:38:25;;;;;;;2.87;0.70;;;24.80;99.90;;;;;;4916496;29;20666;-69
2022/03/12 05:40:53;;;;;;;7.17;1.17;;;24.80;99.90;;;;;;4916532;29;20269;-69
2022/03/12 05:43:21;;;;;;;3.30;1.10;;;25.20;99.90;;;;;;4916421;29;20187;-69
2022/03/12 05:45:52;;;;;;;4.60;1.13;;;25.30;99.90;;;;;;4916526;29;20221;-69
2022/03/12 05:48:20;;;;;;;4.20;0.67;;;25.20;99.90;;;;;;4916488;29;20177;-69
2022/03/12 05:50:49;;;;;;;5.70;0.80;;;25.00;99.90;;;;;;4916051;29;20231;-69
2022/03/12 05:53:19;;;;;;;3.83;1.20;;;25.00;99.90;;;;;;4916111;29;20217;-69
2022/03/12 05:55:47;;;;;;;3.70;0.60;;;25.40;99.90;;;;;;4897460;29;20538;-70
2022/03/12 05:58:17;;;;;;;3.27;0.60;;;25.60;99.90;;;;;;4897502;29;20540;-69
2022/03/12 06:00:46;;;;;;;5.00;0.87;;;25.50;99.90;;;;;;4902016;29;20232;-70
2022/03/12 06:03:13;;;;;;;3.67;0.90;;;25.50;99.90;;;;;;4916283;29;20275;-69
2022/03/12 06:05:42;;;;;;;6.63;1.20;;;25.60;99.90;;;;;;4916031;29;20229;-69
2022/03/12 06:08:14;;;;;;;6.17;1.20;;;25.60;99.90;;;;;;4915896;29;20197;-69
2022/03/12 06:10:45;;;;;;;5.70;0.83;;;25.60;99.90;;;;;;4915338;29;20181;-69
2022/03/12 06:13:16;;;;;;;2.53;0.90;;;25.40;99.90;;;;;;4915772;29;20181;-70
2022/03/12 06:15:49;;;;;;;3.73;1.00;;;25.30;99.90;;;;;;4915037;29;20530;-70
2022/03/12 06:18:16;;;;;;;3.87;0.80;;;25.10;99.90;;;;;;4916011;29;20250;-70
2022/03/12 06:20:44;;;;;;;4.77;0.70;;;25.10;99.90;;;;;;4916076;29;20592;-70
2022/03/12 06:23:11;;;;;;;4.37;1.10;;;25.10;99.90;;;;;;4916109;29;20319;-69
2022/03/12 06:25:38;;;;;;;1.33;0.50;;;25.20;99.90;;;;;;4915767;29;20324;-69
2022/03/12 06:28:06;;;;;;;5.20;0.80;;;25.10;99.90;;;;;;4915870;29;20185;-69
2022/03/12 06:30:33;;;;;;;4.10;1.13;;;25.30;99.90;;;;;;4915414;29;20244;-71
2022/03/12 06:33:03;;;;;;;5.27;0.90;;;25.40;99.90;;;;;;4915876;29;20185;-68
2022/03/12 06:35:30;;;;;;;1.37;0.60;;;25.60;99.90;;;;;;4915567;29;20185;-69
2022/03/12 06:37:58;;;;;;;3.73;0.83;;;26.00;99.90;;;;;;4915544;29;20193;-69
2022/03/12 06:40:29;;;;;;;4.30;1.10;;;25.90;99.90;;;;;;4915258;29;20195;-68
2022/03/12 06:42:59;;;;;;;5.63;1.00;;;25.90;99.90;;;;;;4912081;29;20243;-70
2022/03/12 06:45:28;;;;;;;2.43;0.50;;;26.00;99.90;;;;;;4915691;29;20608;-68
2022/03/12 06:47:56;;;;;;;5.40;1.13;;;25.70;99.90;;;;;;4915662;29;20257;-69
2022/03/12 06:50:24;;;;;;;2.50;0.50;;;25.40;99.90;;;;;;4915722;29;20193;-69
2022/03/12 06:52:53;;;;;;;2.97;0.63;;;24.80;99.90;;;;;;4915740;29;20209;-69
2022/03/12 06:55:27;;;;;;;3.80;0.90;;;24.30;99.90;;;;;;4915702;29;20188;-68
2022/03/12 06:57:57;;;;;;;3.43;0.70;;;24.20;99.90;;;;;;4915848;29;20180;-70
2022/03/12 07:00:28;;;;;;;5.37;0.60;;;24.10;99.90;;;;;;4915379;29;20237;-70
2022/03/12 07:02:56;;;;;;;1.70;0.40;;;23.80;99.90;;;;;;4915689;29;20192;-69
2022/03/12 07:05:24;;;;;;;1.37;0.60;;;23.60;99.90;;;;;;4915676;29;20304;-70
2022/03/12 07:07:52;;;;;;;7.57;0.83;;;23.50;99.90;;;;;;4915582;29;20181;-71
2022/03/12 07:10:20;;;;;;;3.03;1.00;;;23.30;99.90;;;;;;4915590;29;20235;-70
2022/03/12 07:12:48;;;;;;;3.90;0.67;;;23.30;99.90;;;;;;4915367;29;20191;-70
2022/03/12 07:15:17;;;;;;;3.77;1.13;;;23.10;99.90;;;;;;4915494;29;20211;-71
2022/03/12 07:17:44;;;;;;;4.73;1.00;;;23.10;99.90;;;;;;4915733;29;20268;-70
2022/03/12 07:20:13;;;;;;;1.50;0.60;;;23.20;99.90;;;;;;4914893;29;20200;-70
2022/03/12 07:22:40;;;;;;;2.20;0.60;;;23.20;99.90;;;;;;4917619;29;20572;-70
2022/03/12 07:25:12;;;;;;;6.00;0.90;;;23.30;99.90;;;;;;4919057;29;20220;-70
2022/03/12 07:27:40;;;;;;;4.67;1.13;;;23.40;99.90;;;;;;4919293;29;20180;-70
2022/03/12 07:30:09;;;;;;;7.00;1.00;;;23.20;99.90;;;;;;4919183;29;20687;-70
2022/03/12 07:32:39;;;;;;;1.80;1.07;;;23.10;99.90;;;;;;4918582;29;20654;-70
2022/03/12 07:35:07;;;;;;;5.13;1.47;;;23.00;99.90;;;;;;4918706;29;20189;-70
2022/03/12 07:37:35;;;;;;;3.13;1.10;;;23.00;99.90;;;;;;4919063;29;20264;-70
2022/03/12 07:40:03;;;;;;;6.53;1.30;;;22.90;99.90;;;;;;4918460;29;20204;-70
2022/03/12 07:42:31;;;;;;;5.43;1.10;;;22.80;99.90;;;;;;4918573;29;20208;-70
2022/03/12 07:44:58;;;;;;;3.70;1.00;;;22.70;99.90;;;;;;4918850;29;20574;-70
2022/03/12 07:47:25;;;;;;;3.03;0.90;;;22.70;99.90;;;;;;4918767;29;20188;-70
2022/03/12 07:49:53;;;;;;;2.13;0.80;;;22.50;99.90;;;;;;4918827;29;20600;-70
2022/03/12 07:52:21;;;;;;;5.20;1.00;;;22.40;99.90;;;;;;4918260;29;20264;-71
2022/03/12 07:54:48;;;;;;;2.67;0.60;;;22.40;99.90;;;;;;4918693;29;20272;-71
2022/03/12 07:57:16;;;;;;;4.67;0.70;;;22.30;99.90;;;;;;4918449;29;20239;-70
2022/03/12 07:59:44;;;;;;;6.70;1.07;;;22.20;99.90;;;;;;4918520;29;20220;-70
2022/03/12 08:02:12;;;;;;;4.97;0.77;;;22.20;99.90;;;;;;4917937;29;20251;-70
2022/03/12 08:04:39;;;;;;;4.10;0.87;;;22.10;99.90;;;;;;4918376;29;20709;-71
2022/03/12 08:07:07;;;;;;;4.20;0.93;;;22.00;99.90;;;;;;4918524;29;20177;-70
2022/03/12 08:09:34;;;;;;;2.77;1.27;;;21.90;99.90;;;;;;4918334;29;20232;-70
2022/03/12 08:12:02;;;;;;;4.60;1.40;;;21.80;99.90;;;;;;4918031;29;20189;-70
2022/03/12 08:14:32;;;;;;;2.37;0.77;;;21.80;99.90;;;;;;4918223;29;20201;-70
2022/03/12 08:17:00;;;;;;;3.23;0.90;;;21.80;99.90;;;;;;4918581;29;20173;-70
2022/03/12 08:19:28;;;;;;;2.43;0.70;;;21.70;99.90;;;;;;4918381;29;20180;-70
2022/03/12 08:21:57;;;;;;;2.53;1.00;;;21.70;99.90;;;;;;4916679;29;20212;-70
2022/03/12 08:24:24;;;;;;;2.33;0.90;;;21.60;99.90;;;;;;4917972;29;20236;-70
2022/03/12 08:26:52;;;;;;;2.80;0.80;;;21.60;99.90;;;;;;4917700;29;20187;-70
2022/03/12 08:29:21;;;;;;;2.33;0.80;;;21.50;99.90;;;;;;4915710;29;20675;-71
2022/03/12 08:31:49;;;;;;;4.17;0.97;;;21.50;99.90;;;;;;4918205;29;20181;-70
2022/03/12 08:34:16;;;;;;;4.83;0.80;;;21.40;99.90;;;;;;4917675;29;20660;-70
2022/03/12 08:36:44;;;;;;;1.63;1.00;;;21.40;99.90;;;;;;4919106;29;20205;-70
2022/03/12 08:39:14;;;;;;;3.37;1.17;;;21.30;99.90;;;;;;4919443;29;20205;-70
2022/03/12 08:41:49;;;;;;;4.63;1.10;;;21.30;99.90;;;;;;4923517;29;20186;-72
2022/03/12 08:44:17;;;;;;;6.70;1.60;;;21.30;99.90;;;;;;4919115;29;20220;-71
2022/03/12 08:46:46;;;;;;;2.77;0.97;;;21.30;99.90;;;;;;4917477;29;20189;-71
2022/03/12 08:49:14;;;;;;;8.03;1.50;;;21.20;99.90;;;;;;4919116;29;20233;-71
2022/03/12 08:51:42;;;;;;;4.40;1.30;;;21.10;99.90;;;;;;4918525;29;20217;-72
2022/03/12 08:54:10;;;;;;;4.83;1.53;;;21.00;99.90;;;;;;4919148;29;20184;-70
2022/03/12 08:56:38;;;;;;;11.33;2.03;;;21.00;99.90;;;;;;4918571;29;20695;-70
2022/03/12 08:59:07;;;;;;;5.03;1.30;;;20.90;99.90;;;;;;4919753;29;20532;-70
2022/03/12 09:01:34;;;;;;;3.10;1.20;;;20.90;99.90;;;;;;4918274;29;20216;-70
2022/03/12 09:04:02;;;;;;;4.60;1.10;;;20.80;99.90;;;;;;4918525;29;20177;-70
2022/03/12 09:06:32;;;;;;;4.87;1.07;;;20.80;99.90;;;;;;4917320;29;20193;-70
2022/03/12 09:09:00;;;;;;;6.60;2.07;;;20.80;99.90;;;;;;4918973;29;20201;-70
2022/03/12 09:11:27;;;;;;;3.53;1.00;;;20.80;99.90;;;;;;4919334;29;20224;-69
2022/03/12 09:13:55;;;;;;;2.50;1.37;;;20.80;99.90;;;;;;4918552;29;20221;-69
2022/03/12 09:16:23;;;;;;;3.63;1.10;;;20.80;99.90;;;;;;4918614;29;20201;-70
2022/03/12 09:18:53;;;;;;;8.57;1.57;;;20.70;99.90;;;;;;4918342;29;20184;-70
2022/03/12 09:21:37;;;;;;;4.53;1.87;;;20.60;99.90;;;;;;4918271;29;20236;-72
2022/03/12 09:24:19;;;;;;;6.20;1.53;;;20.50;99.90;;;;;;4916823;29;20611;-72
2022/03/12 09:26:49;;;;;;;6.67;1.40;;;20.50;99.90;;;;;;4899578;29;20644;-72
2022/03/12 09:29:31;;;;;;;4.00;1.47;;;20.40;99.90;;;;;;4897588;29;20205;-72
2022/03/12 09:31:58;;;;;;;3.23;1.40;;;20.30;99.90;;;;;;4917555;29;20193;-69
2022/03/12 09:34:26;;;;;;;4.17;1.50;;;20.20;99.90;;;;;;4917834;29;20191;-69
2022/03/12 09:36:53;;;;;;;4.40;1.00;;;20.10;99.90;;;;;;4917950;29;20186;-70
2022/03/12 09:39:21;;;;;;;5.07;1.97;;;20.10;99.90;;;;;;4917649;29;20260;-71
2022/03/12 09:41:49;;;;;;;3.93;1.20;;;20.00;99.90;;;;;;4917964;29;20184;-71
2022/03/12 09:44:17;;;;;;;5.43;1.30;;;19.90;99.90;;;;;;4917376;29;20256;-71
2022/03/12 09:46:44;;;;;;;5.10;1.67;;;19.80;99.90;;;;;;4917969;29;20266;-71
2022/03/12 09:49:12;;;;;;;3.63;1.50;;;19.70;99.90;;;;;;4917857;29;20173;-71
2022/03/12 09:51:40;;;;;;;2.53;1.17;;;19.70;99.90;;;;;;4917514;29;20194;-72
2022/03/12 09:54:07;;;;;;;7.67;1.30;;;19.60;99.90;;;;;;4917829;29;20185;-70
2022/03/12 09:56:35;;;;;;;3.07;1.47;;;19.50;99.90;;;;;;4916104;29;20511;-71
2022/03/12 09:59:02;;;;;;;5.17;1.90;;;19.40;99.90;;;;;;4917668;29;20177;-69
2022/03/12 10:01:29;;;;;;;5.07;1.50;;;19.30;99.90;;;;;;4917285;29;20231;-71
2022/03/12 10:03:57;;;;;;;5.00;1.90;;;19.30;99.90;;;;;;4917597;29;20177;-70
2022/03/12 10:06:24;;;;;;;7.57;1.63;;;19.20;99.90;;;;;;4917761;29;20173;-69
2022/03/12 10:08:55;;;;;;;5.50;1.80;;;19.20;99.90;;;;;;4917857;29;20183;-69
2022/03/12 10:11:22;;;;;;;3.23;1.67;;;19.10;99.90;;;;;;4917190;29;20190;-70
2022/03/12 10:13:50;;;;;;;5.30;1.90;;;19.00;99.90;;;;;;4917295;29;20181;-70
2022/03/12 10:16:18;;;;;;;4.10;1.50;;;18.90;99.90;;;;;;4917378;29;20191;-70
2022/03/12 10:18:48;;;;;;;3.10;1.80;;;18.80;99.90;;;;;;4917574;29;20185;-70
2022/03/12 10:21:16;;;;;;;8.83;1.63;;;18.80;99.90;;;;;;4917131;29;20216;-71
2022/03/12 10:23:43;;;;;;;5.53;1.60;;;18.70;99.90;;;;;;4917072;29;20180;-71
2022/03/12 10:26:11;;;;;;;4.07;1.90;;;18.70;99.90;;;;;;4917147;29;20213;-71
2022/03/12 10:28:38;;;;;;;4.37;1.70;;;18.60;99.90;;;;;;4917158;29;20266;-70
2022/03/12 10:31:07;;;;;;;3.87;1.63;;;18.50;99.90;;;;;;4917274;29;20660;-69
2022/03/12 10:33:36;;;;;;;4.70;1.73;;;18.50;99.90;;;;;;4916966;29;20169;-71
2022/03/12 10:36:16;;;;;;;4.93;2.10;;;18.60;99.90;;;;;;4916899;29;20182;-71
2022/03/12 10:38:46;;;;;;;6.17;2.00;;;18.60;99.90;;;;;;4917130;29;20182;-70
2022/03/12 10:41:14;;;;;;;5.33;1.83;;;18.50;99.90;;;;;;4917028;29;20546;-70
2022/03/12 10:43:55;;;;;;;5.00;1.80;;;18.40;99.90;;;;;;4915621;29;20193;-70
2022/03/12 10:46:30;;;;;;;6.90;1.97;;;18.40;99.90;;;;;;4917329;29;20193;-71
2022/03/12 10:49:00;;;;;;;4.57;2.00;;;18.40;99.90;;;;;;4917000;29;20257;-71
2022/03/12 10:51:35;;;;;;;4.90;2.07;;;18.40;99.90;;;;;;4916781;29;20193;-71
2022/03/12 10:54:09;;;;;;;5.23;1.70;;;18.30;99.90;;;;;;4916948;29;20176;-71
2022/03/12 10:56:56;;;;;;;6.97;2.17;;;18.20;99.90;;;;;;4917263;29;20343;-70
2022/03/12 10:59:26;;;;;;;3.70;1.80;;;18.10;99.90;;;;;;4920883;29;20180;-70
2022/03/12 11:01:58;;;;;;;4.43;1.83;;;18.00;99.90;;;;;;4920850;29;20805;-71
2022/03/12 11:04:29;;;;;;;3.67;1.63;;;18.00;99.90;;;;;;4921164;29;20216;-70
2022/03/12 11:06:59;;;;;;;5.83;1.73;;;17.90;99.90;;;;;;4921070;29;20181;-71
2022/03/12 11:09:39;;;;;;;7.90;2.53;;;17.90;99.90;;;;;;4920838;29;20264;-70
2022/03/12 11:12:31;;;;;;;3.27;1.60;;;17.90;99.90;;;;;;4920953;29;20184;-71
2022/03/12 11:15:10;;;;;;;3.23;2.17;;;17.80;99.90;;;;;;4920864;29;20188;-71
2022/03/12 11:17:48;;;;;;;4.43;1.93;;;17.70;99.90;;;;;;4920453;29;20184;-72
2022/03/12 11:20:23;;;;;;;6.07;2.50;;;17.70;99.90;;;;;;4920477;29;20570;-71
2022/03/12 11:22:53;;;;;;;5.20;2.00;;;17.60;99.90;;;;;;4920904;29;20263;-71
2022/03/12 11:25:23;;;;;;;4.43;2.10;;;17.60;99.90;;;;;;4920154;29;20227;-71
2022/03/12 11:27:50;;;;;;;3.67;2.43;;;17.50;99.90;;;;;;4920465;29;20213;-72
2022/03/12 11:30:23;;;;;;;6.90;2.10;;;17.50;99.90;;;;;;4920320;29;20190;-70
2022/03/12 11:33:07;;;;;;;5.57;2.40;;;17.50;99.90;;;;;;4920424;29;20179;-71
2022/03/12 11:35:45;;;;;;;7.03;2.67;;;17.50;99.90;;;;;;4919115;29;20197;-71
2022/03/12 11:38:18;;;;;;;8.17;2.60;;;17.50;99.90;;;;;;4920500;29;20184;-71
2022/03/12 11:40:48;;;;;;;6.10;2.60;;;17.40;99.90;;;;;;4919869;29;20313;-70
2022/03/12 11:43:36;;;;;;;5.13;2.70;;;17.40;99.90;;;;;;4920064;29;20178;-71
2022/03/12 11:46:07;;;;;;;7.47;3.97;;;17.40;99.90;;;;;;4918558;29;20622;-71
2022/03/12 11:48:37;;;;;;;8.70;3.53;;;17.40;99.90;;;;;;4919960;29;20173;-70
2022/03/12 11:51:18;;;;;;;6.73;2.80;;;17.30;99.90;;;;;;4919754;29;20189;-71
2022/03/12 11:53:47;;;;;;;8.93;3.37;;;17.30;99.90;;;;;;4919877;29;20544;-71
2022/03/12 11:56:16;;;;;;;5.67;3.13;;;17.30;99.90;;;;;;4920009;29;20595;-70
2022/03/12 11:58:47;;;;;;;5.63;3.00;;;17.30;99.90;;;;;;4919859;29;20170;-71
2022/03/12 12:01:20;;;;;;;9.33;3.30;;;17.20;99.90;;;;;;4919288;29;20317;-72
2022/03/12 12:03:53;;;;;;;8.20;3.00;;;17.10;99.90;;;;;;4919385;29;20240;-70
2022/03/12 12:06:22;;;;;;;7.67;3.40;;;17.10;99.90;;;;;;4919673;29;20722;-71
2022/03/12 12:08:51;;;;;;;12.27;3.53;;;17.10;99.90;;;;;;4919440;29;20616;-71
2022/03/12 12:11:18;;;;;;;6.13;3.50;;;17.20;99.90;;;;;;4919776;29;20684;-70
2022/03/12 12:13:46;;;;;;;8.23;3.07;;;17.20;99.90;;;;;;4919121;29;20215;-71
2022/03/12 12:16:15;;;;;;;7.80;3.43;;;17.20;99.90;;;;;;4919957;29;20173;-70
2022/03/12 12:18:43;;;;;;;5.00;2.97;;;17.20;99.90;;;;;;4919137;29;20240;-70
2022/03/12 12:21:18;;;;;;;5.87;3.13;;;17.10;99.90;;;;;;4919610;29;20177;-71
2022/03/12 12:23:47;;;;;;;7.47;2.90;;;17.10;99.90;;;;;;4919761;29;20215;-72
2022/03/12 12:26:15;;;;;;;5.47;2.63;;;17.00;99.90;;;;;;4919534;29;20220;-71
2022/03/12 12:28:53;;;;;;;6.03;3.03;;;17.00;99.90;;;;;;4919268;29;20177;-71
2022/03/12 12:31:24;;;;;;;5.07;2.97;;;17.00;99.90;;;;;;4900319;29;20201;-71
2022/03/12 12:33:54;;;;;;;9.43;3.37;;;16.90;99.90;;;;;;4900339;29;20260;-72
2022/03/12 12:36:22;;;;;;;6.27;2.90;;;16.90;99.90;;;;;;4900302;29;20542;-71
2022/03/12 12:39:12;;;;;;;5.10;2.50;;;16.80;99.90;;;;;;4899215;29;20281;-71
2022/03/12 12:42:01;;;;;;;8.27;2.50;;;16.80;99.90;;;;;;4900439;29;20186;-71
2022/03/12 12:44:45;;;;;;;4.30;2.53;;;16.80;99.90;;;;;;4901339;29;20256;-71
2022/03/12 12:47:18;;;;;;;5.93;3.37;;;16.70;99.90;;;;;;4902192;29;20190;-72
2022/03/12 12:49:56;;;;;;;8.87;3.47;;;16.70;99.90;;;;;;4907406;29;20217;-71
2022/03/12 12:52:26;;;;;;;7.20;3.37;;;16.70;99.90;;;;;;4918576;29;20215;-70
2022/03/12 12:54:58;;;;;;;6.77;2.97;;;16.70;99.90;;;;;;4919499;29;20242;-71
2022/03/12 12:57:45;;;;;;;7.30;3.40;;;16.60;99.90;;;;;;4919024;29;20636;-71
2022/03/12 13:00:33;;;;;;;5.37;2.73;;;16.60;99.90;;;;;;4918951;29;20199;-71
2022/03/12 13:03:04;;;;;;;6.30;2.83;;;16.60;99.90;;;;;;4918919;29;20179;-71